sensor_id;sensor_type;location;lat;lon;timestamp;P1;durP1;ratioP1;P2;durP2;ratioP2
35434;SDS011;21556;55.782;37.528;2022-08-21T00:00:58;58.95;;;38.20;;
35434;SDS011;21556;55.782;37.528;2022-08-21T00:03:27;48.70;;;38.05;;
35434;SDS011;21556;55.782;37.528;2022-08-21T00:05:53;51.45;;;38.85;;
35434;SDS011;21556;55.782;37.528;2022-08-21T00:08:20;48.25;;;37.65;;
35434;SDS011;21556;55.782;37.528;2022-08-21T00:10:46;50.15;;;40.13;;
35434;SDS011;21556;55.782;37.528;2022-08-21T00:13:12;50.15;;;38.70;;
35434;SDS011;21556;55.782;37.528;2022-08-21T00:15:39;47.75;;;36.88;;
35434;SDS011;21556;55.782;37.528;2022-08-21T00:18:06;46.85;;;37.97;;
35434;SDS011;21556;55.782;37.528;2022-08-21T00:20:33;50.67;;;37.20;;
35434;SDS011;21556;55.782;37.528;2022-08-21T00:23:00;44.90;;;38.60;;
35434;SDS011;21556;55.782;37.528;2022-08-21T00:25:26;46.10;;;37.15;;
35434;SDS011;21556;55.782;37.528;2022-08-21T00:27:52;52.25;;;38.70;;
35434;SDS011;21556;55.782;37.528;2022-08-21T00:30:19;54.72;;;39.13;;
35434;SDS011;21556;55.782;37.528;2022-08-21T00:32:47;53.20;;;39.80;;
35434;SDS011;21556;55.782;37.528;2022-08-21T00:35:14;49.65;;;39.25;;
35434;SDS011;21556;55.782;37.528;2022-08-21T00:37:42;50.33;;;39.10;;
35434;SDS011;21556;55.782;37.528;2022-08-21T00:40:10;50.42;;;39.72;;
35434;SDS011;21556;55.782;37.528;2022-08-21T00:42:41;52.13;;;38.78;;
35434;SDS011;21556;55.782;37.528;2022-08-21T00:45:07;52.22;;;38.75;;
35434;SDS011;21556;55.782;37.528;2022-08-21T00:47:34;54.25;;;40.17;;
35434;SDS011;21556;55.782;37.528;2022-08-21T00:50:00;47.90;;;38.75;;
35434;SDS011;21556;55.782;37.528;2022-08-21T00:52:27;51.13;;;38.80;;
35434;SDS011;21556;55.782;37.528;2022-08-21T00:54:55;46.95;;;37.63;;
35434;SDS011;21556;55.782;37.528;2022-08-21T00:57:27;51.70;;;39.05;;
35434;SDS011;21556;55.782;37.528;2022-08-21T00:59:58;47.03;;;37.83;;
35434;SDS011;21556;55.782;37.528;2022-08-21T01:02:26;48.55;;;37.17;;
35434;SDS011;21556;55.782;37.528;2022-08-21T01:04:52;46.70;;;35.33;;
35434;SDS011;21556;55.782;37.528;2022-08-21T01:07:18;48.00;;;38.42;;
35434;SDS011;21556;55.782;37.528;2022-08-21T01:09:48;44.72;;;36.42;;
35434;SDS011;21556;55.782;37.528;2022-08-21T01:12:14;48.85;;;36.45;;
35434;SDS011;21556;55.782;37.528;2022-08-21T01:14:40;45.33;;;34.45;;
35434;SDS011;21556;55.782;37.528;2022-08-21T01:17:08;46.50;;;35.05;;
35434;SDS011;21556;55.782;37.528;2022-08-21T01:19:35;46.05;;;35.53;;
35434;SDS011;21556;55.782;37.528;2022-08-21T01:22:01;48.35;;;35.58;;
35434;SDS011;21556;55.782;37.528;2022-08-21T01:24:27;46.38;;;36.20;;
35434;SDS011;21556;55.782;37.528;2022-08-21T01:26:53;43.97;;;34.83;;
35434;SDS011;21556;55.782;37.528;2022-08-21T01:32:11;45.30;;;33.05;;
35434;SDS011;21556;55.782;37.528;2022-08-21T01:34:42;44.35;;;33.80;;
35434;SDS011;21556;55.782;37.528;2022-08-21T01:37:09;42.65;;;32.60;;
35434;SDS011;21556;55.782;37.528;2022-08-21T01:39:36;41.80;;;32.00;;
35434;SDS011;21556;55.782;37.528;2022-08-21T01:42:03;41.45;;;33.20;;
35434;SDS011;21556;55.782;37.528;2022-08-21T01:44:29;44.65;;;32.38;;
35434;SDS011;21556;55.782;37.528;2022-08-21T01:46:57;45.20;;;31.05;;
35434;SDS011;21556;55.782;37.528;2022-08-21T01:49:24;40.40;;;29.90;;
35434;SDS011;21556;55.782;37.528;2022-08-21T01:51:49;40.25;;;30.58;;
35434;SDS011;21556;55.782;37.528;2022-08-21T01:54:16;42.58;;;30.52;;
35434;SDS011;21556;55.782;37.528;2022-08-21T01:56:43;41.03;;;31.17;;
35434;SDS011;21556;55.782;37.528;2022-08-21T01:59:12;37.80;;;30.13;;
35434;SDS011;21556;55.782;37.528;2022-08-21T02:01:38;39.72;;;30.42;;
35434;SDS011;21556;55.782;37.528;2022-08-21T02:04:07;37.95;;;29.77;;
35434;SDS011;21556;55.782;37.528;2022-08-21T02:06:35;39.17;;;29.55;;
35434;SDS011;21556;55.782;37.528;2022-08-21T02:09:05;46.20;;;30.67;;
35434;SDS011;21556;55.782;37.528;2022-08-21T02:11:32;35.63;;;28.15;;
35434;SDS011;21556;55.782;37.528;2022-08-21T02:13:58;39.33;;;30.13;;
35434;SDS011;21556;55.782;37.528;2022-08-21T02:16:23;38.72;;;28.67;;
35434;SDS011;21556;55.782;37.528;2022-08-21T02:18:49;37.53;;;28.55;;
35434;SDS011;21556;55.782;37.528;2022-08-21T02:21:18;38.38;;;29.70;;
35434;SDS011;21556;55.782;37.528;2022-08-21T02:23:44;41.08;;;28.58;;
35434;SDS011;21556;55.782;37.528;2022-08-21T02:26:10;37.00;;;28.58;;
35434;SDS011;21556;55.782;37.528;2022-08-21T02:28:37;36.05;;;27.27;;
35434;SDS011;21556;55.782;37.528;2022-08-21T02:31:04;36.90;;;28.90;;
35434;SDS011;21556;55.782;37.528;2022-08-21T02:33:31;37.28;;;28.00;;
35434;SDS011;21556;55.782;37.528;2022-08-21T02:35:57;33.00;;;26.70;;
35434;SDS011;21556;55.782;37.528;2022-08-21T02:38:25;36.20;;;27.83;;
35434;SDS011;21556;55.782;37.528;2022-08-21T02:40:53;35.50;;;27.83;;
35434;SDS011;21556;55.782;37.528;2022-08-21T02:43:20;38.70;;;29.08;;
35434;SDS011;21556;55.782;37.528;2022-08-21T02:45:48;40.63;;;29.10;;
35434;SDS011;21556;55.782;37.528;2022-08-21T02:48:16;36.65;;;27.02;;
35434;SDS011;21556;55.782;37.528;2022-08-21T02:50:45;37.78;;;26.90;;
35434;SDS011;21556;55.782;37.528;2022-08-21T02:53:14;37.28;;;27.50;;
35434;SDS011;21556;55.782;37.528;2022-08-21T02:55:42;34.75;;;26.75;;
35434;SDS011;21556;55.782;37.528;2022-08-21T02:58:09;36.42;;;27.90;;
35434;SDS011;21556;55.782;37.528;2022-08-21T03:00:38;38.80;;;27.73;;
35434;SDS011;21556;55.782;37.528;2022-08-21T03:05:32;39.50;;;29.23;;
35434;SDS011;21556;55.782;37.528;2022-08-21T03:08:01;36.22;;;27.70;;
35434;SDS011;21556;55.782;37.528;2022-08-21T03:10:29;36.13;;;26.67;;
35434;SDS011;21556;55.782;37.528;2022-08-21T03:12:56;40.67;;;27.27;;
35434;SDS011;21556;55.782;37.528;2022-08-21T03:15:22;36.58;;;27.10;;
35434;SDS011;21556;55.782;37.528;2022-08-21T03:17:49;38.50;;;27.13;;
35434;SDS011;21556;55.782;37.528;2022-08-21T03:20:20;37.65;;;27.05;;
35434;SDS011;21556;55.782;37.528;2022-08-21T03:22:49;37.17;;;28.00;;
35434;SDS011;21556;55.782;37.528;2022-08-21T03:25:16;39.53;;;28.30;;
35434;SDS011;21556;55.782;37.528;2022-08-21T03:27:43;39.47;;;27.63;;
35434;SDS011;21556;55.782;37.528;2022-08-21T03:30:09;41.45;;;28.15;;
35434;SDS011;21556;55.782;37.528;2022-08-21T03:32:36;41.47;;;27.02;;
35434;SDS011;21556;55.782;37.528;2022-08-21T03:35:03;34.00;;;27.42;;
35434;SDS011;21556;55.782;37.528;2022-08-21T03:37:29;36.42;;;27.25;;
35434;SDS011;21556;55.782;37.528;2022-08-21T03:39:55;35.58;;;27.30;;
35434;SDS011;21556;55.782;37.528;2022-08-21T03:42:21;36.17;;;28.20;;
35434;SDS011;21556;55.782;37.528;2022-08-21T03:44:48;35.83;;;27.80;;
35434;SDS011;21556;55.782;37.528;2022-08-21T03:47:14;37.55;;;28.88;;
35434;SDS011;21556;55.782;37.528;2022-08-21T03:49:40;37.50;;;27.88;;
35434;SDS011;21556;55.782;37.528;2022-08-21T03:52:06;39.30;;;27.70;;
35434;SDS011;21556;55.782;37.528;2022-08-21T03:54:32;35.33;;;27.60;;
35434;SDS011;21556;55.782;37.528;2022-08-21T03:56:58;36.83;;;28.38;;
35434;SDS011;21556;55.782;37.528;2022-08-21T03:59:24;34.58;;;28.10;;
35434;SDS011;21556;55.782;37.528;2022-08-21T04:01:54;33.15;;;26.90;;
35434;SDS011;21556;55.782;37.528;2022-08-21T04:04:21;39.70;;;27.00;;
35434;SDS011;21556;55.782;37.528;2022-08-21T04:06:48;39.70;;;26.75;;
35434;SDS011;21556;55.782;37.528;2022-08-21T04:09:15;34.67;;;28.05;;
35434;SDS011;21556;55.782;37.528;2022-08-21T04:11:41;42.45;;;28.08;;
35434;SDS011;21556;55.782;37.528;2022-08-21T04:14:07;32.83;;;26.55;;
35434;SDS011;21556;55.782;37.528;2022-08-21T04:16:34;44.25;;;27.40;;
35434;SDS011;21556;55.782;37.528;2022-08-21T04:18:59;36.50;;;28.85;;
35434;SDS011;21556;55.782;37.528;2022-08-21T04:21:26;34.08;;;27.50;;
35434;SDS011;21556;55.782;37.528;2022-08-21T04:23:53;35.28;;;27.58;;
35434;SDS011;21556;55.782;37.528;2022-08-21T04:26:20;42.15;;;29.25;;
35434;SDS011;21556;55.782;37.528;2022-08-21T04:28:47;36.97;;;28.85;;
35434;SDS011;21556;55.782;37.528;2022-08-21T04:31:12;38.73;;;29.43;;
35434;SDS011;21556;55.782;37.528;2022-08-21T04:33:39;34.15;;;28.60;;
35434;SDS011;21556;55.782;37.528;2022-08-21T04:36:06;39.78;;;29.17;;
35434;SDS011;21556;55.782;37.528;2022-08-21T04:38:32;37.53;;;29.38;;
35434;SDS011;21556;55.782;37.528;2022-08-21T04:40:58;39.83;;;29.58;;
35434;SDS011;21556;55.782;37.528;2022-08-21T04:43:24;41.92;;;29.75;;
35434;SDS011;21556;55.782;37.528;2022-08-21T04:45:51;40.30;;;29.90;;
35434;SDS011;21556;55.782;37.528;2022-08-21T04:48:19;37.05;;;29.85;;
35434;SDS011;21556;55.782;37.528;2022-08-21T04:53:22;40.33;;;30.35;;
35434;SDS011;21556;55.782;37.528;2022-08-21T04:55:54;41.20;;;32.13;;
35434;SDS011;21556;55.782;37.528;2022-08-21T05:00:51;43.83;;;32.03;;
35434;SDS011;21556;55.782;37.528;2022-08-21T05:03:18;45.15;;;32.00;;
35434;SDS011;21556;55.782;37.528;2022-08-21T05:05:45;41.78;;;33.45;;
35434;SDS011;21556;55.782;37.528;2022-08-21T05:08:14;41.97;;;33.30;;
35434;SDS011;21556;55.782;37.528;2022-08-21T05:10:44;38.33;;;33.80;;
35434;SDS011;21556;55.782;37.528;2022-08-21T05:13:11;45.05;;;33.40;;
35434;SDS011;21556;55.782;37.528;2022-08-21T05:15:38;44.97;;;32.95;;
35434;SDS011;21556;55.782;37.528;2022-08-21T05:18:04;50.15;;;37.33;;
35434;SDS011;21556;55.782;37.528;2022-08-21T05:20:32;49.92;;;36.05;;
35434;SDS011;21556;55.782;37.528;2022-08-21T05:22:59;46.10;;;33.90;;
35434;SDS011;21556;55.782;37.528;2022-08-21T05:25:27;43.35;;;34.47;;
35434;SDS011;21556;55.782;37.528;2022-08-21T05:27:53;47.33;;;35.08;;
35434;SDS011;21556;55.782;37.528;2022-08-21T05:30:19;48.17;;;34.05;;
35434;SDS011;21556;55.782;37.528;2022-08-21T05:32:45;45.22;;;34.88;;
35434;SDS011;21556;55.782;37.528;2022-08-21T05:35:13;43.83;;;34.65;;
35434;SDS011;21556;55.782;37.528;2022-08-21T05:37:39;44.75;;;35.08;;
35434;SDS011;21556;55.782;37.528;2022-08-21T05:40:05;45.92;;;36.35;;
35434;SDS011;21556;55.782;37.528;2022-08-21T05:42:33;50.08;;;34.38;;
35434;SDS011;21556;55.782;37.528;2022-08-21T05:44:58;44.53;;;35.25;;
35434;SDS011;21556;55.782;37.528;2022-08-21T05:47:24;42.75;;;36.08;;
35434;SDS011;21556;55.782;37.528;2022-08-21T05:49:50;45.53;;;36.03;;
35434;SDS011;21556;55.782;37.528;2022-08-21T05:52:20;47.30;;;35.00;;
35434;SDS011;21556;55.782;37.528;2022-08-21T05:54:47;46.13;;;36.38;;
35434;SDS011;21556;55.782;37.528;2022-08-21T05:57:15;46.88;;;36.03;;
35434;SDS011;21556;55.782;37.528;2022-08-21T05:59:41;46.97;;;34.88;;
35434;SDS011;21556;55.782;37.528;2022-08-21T06:02:07;44.08;;;36.63;;
35434;SDS011;21556;55.782;37.528;2022-08-21T06:04:37;49.95;;;37.08;;
35434;SDS011;21556;55.782;37.528;2022-08-21T06:07:04;47.42;;;37.33;;
35434;SDS011;21556;55.782;37.528;2022-08-21T06:09:30;40.88;;;34.40;;
35434;SDS011;21556;55.782;37.528;2022-08-21T06:11:56;43.63;;;34.78;;
35434;SDS011;21556;55.782;37.528;2022-08-21T06:14:22;43.97;;;36.70;;
35434;SDS011;21556;55.782;37.528;2022-08-21T06:16:48;43.92;;;35.15;;
35434;SDS011;21556;55.782;37.528;2022-08-21T06:19:14;46.38;;;36.20;;
35434;SDS011;21556;55.782;37.528;2022-08-21T06:21:40;44.55;;;35.75;;
35434;SDS011;21556;55.782;37.528;2022-08-21T06:24:05;43.90;;;34.95;;
35434;SDS011;21556;55.782;37.528;2022-08-21T06:26:34;44.45;;;35.67;;
35434;SDS011;21556;55.782;37.528;2022-08-21T06:29:00;46.05;;;35.00;;
35434;SDS011;21556;55.782;37.528;2022-08-21T06:31:27;43.50;;;34.42;;
35434;SDS011;21556;55.782;37.528;2022-08-21T06:33:53;46.38;;;33.60;;
35434;SDS011;21556;55.782;37.528;2022-08-21T06:36:20;42.08;;;35.08;;
35434;SDS011;21556;55.782;37.528;2022-08-21T06:38:46;43.05;;;33.67;;
35434;SDS011;21556;55.782;37.528;2022-08-21T06:41:12;45.15;;;35.13;;
35434;SDS011;21556;55.782;37.528;2022-08-21T06:43:38;49.97;;;36.38;;
35434;SDS011;21556;55.782;37.528;2022-08-21T06:46:04;44.78;;;34.38;;
35434;SDS011;21556;55.782;37.528;2022-08-21T06:48:30;46.42;;;36.20;;
35434;SDS011;21556;55.782;37.528;2022-08-21T06:50:59;41.88;;;36.55;;
35434;SDS011;21556;55.782;37.528;2022-08-21T06:53:25;42.33;;;35.47;;
35434;SDS011;21556;55.782;37.528;2022-08-21T06:55:52;43.42;;;34.63;;
35434;SDS011;21556;55.782;37.528;2022-08-21T06:58:18;47.65;;;36.92;;
35434;SDS011;21556;55.782;37.528;2022-08-21T07:00:46;45.15;;;34.78;;
35434;SDS011;21556;55.782;37.528;2022-08-21T07:06:08;47.65;;;37.20;;
35434;SDS011;21556;55.782;37.528;2022-08-21T07:08:36;48.22;;;37.35;;
35434;SDS011;21556;55.782;37.528;2022-08-21T07:11:09;45.08;;;35.97;;
35434;SDS011;21556;55.782;37.528;2022-08-21T07:13:41;40.33;;;35.65;;
35434;SDS011;21556;55.782;37.528;2022-08-21T07:16:06;41.08;;;35.00;;
35434;SDS011;21556;55.782;37.528;2022-08-21T07:18:33;46.15;;;35.13;;
35434;SDS011;21556;55.782;37.528;2022-08-21T07:21:03;39.42;;;32.70;;
35434;SDS011;21556;55.782;37.528;2022-08-21T07:23:32;40.47;;;34.42;;
35434;SDS011;21556;55.782;37.528;2022-08-21T07:26:00;41.22;;;35.05;;
35434;SDS011;21556;55.782;37.528;2022-08-21T07:28:26;43.55;;;34.10;;
35434;SDS011;21556;55.782;37.528;2022-08-21T07:30:54;41.38;;;33.13;;
35434;SDS011;21556;55.782;37.528;2022-08-21T07:33:21;37.85;;;31.55;;
35434;SDS011;21556;55.782;37.528;2022-08-21T07:35:47;44.50;;;33.50;;
35434;SDS011;21556;55.782;37.528;2022-08-21T07:38:13;35.95;;;31.98;;
35434;SDS011;21556;55.782;37.528;2022-08-21T07:40:39;41.85;;;32.85;;
35434;SDS011;21556;55.782;37.528;2022-08-21T07:43:04;36.90;;;32.42;;
35434;SDS011;21556;55.782;37.528;2022-08-21T07:45:31;37.55;;;30.83;;
35434;SDS011;21556;55.782;37.528;2022-08-21T07:47:57;38.75;;;31.77;;
35434;SDS011;21556;55.782;37.528;2022-08-21T07:50:23;38.17;;;32.33;;
35434;SDS011;21556;55.782;37.528;2022-08-21T07:52:49;39.58;;;32.85;;
35434;SDS011;21556;55.782;37.528;2022-08-21T07:55:17;42.83;;;32.83;;
35434;SDS011;21556;55.782;37.528;2022-08-21T07:57:46;41.80;;;34.08;;
35434;SDS011;21556;55.782;37.528;2022-08-21T08:00:14;41.13;;;33.33;;
35434;SDS011;21556;55.782;37.528;2022-08-21T08:02:44;41.05;;;31.85;;
35434;SDS011;21556;55.782;37.528;2022-08-21T08:05:18;37.92;;;31.25;;
35434;SDS011;21556;55.782;37.528;2022-08-21T08:07:47;36.22;;;30.48;;
35434;SDS011;21556;55.782;37.528;2022-08-21T08:10:14;42.55;;;30.88;;
35434;SDS011;21556;55.782;37.528;2022-08-21T08:12:40;35.45;;;29.35;;
35434;SDS011;21556;55.782;37.528;2022-08-21T08:15:08;34.60;;;28.45;;
35434;SDS011;21556;55.782;37.528;2022-08-21T08:17:36;39.85;;;29.08;;
35434;SDS011;21556;55.782;37.528;2022-08-21T08:20:07;45.60;;;30.08;;
35434;SDS011;21556;55.782;37.528;2022-08-21T08:22:36;39.88;;;28.05;;
35434;SDS011;21556;55.782;37.528;2022-08-21T08:25:04;35.40;;;28.13;;
35434;SDS011;21556;55.782;37.528;2022-08-21T08:27:31;31.02;;;26.10;;
35434;SDS011;21556;55.782;37.528;2022-08-21T08:29:57;35.53;;;25.63;;
35434;SDS011;21556;55.782;37.528;2022-08-21T08:32:23;29.17;;;24.60;;
35434;SDS011;21556;55.782;37.528;2022-08-21T08:34:50;33.75;;;23.67;;
35434;SDS011;21556;55.782;37.528;2022-08-21T08:37:17;28.37;;;21.97;;
35434;SDS011;21556;55.782;37.528;2022-08-21T08:39:47;29.67;;;22.58;;
35434;SDS011;21556;55.782;37.528;2022-08-21T08:44:53;30.35;;;21.67;;
35434;SDS011;21556;55.782;37.528;2022-08-21T08:47:25;29.63;;;21.55;;
35434;SDS011;21556;55.782;37.528;2022-08-21T08:50:04;27.80;;;21.95;;
35434;SDS011;21556;55.782;37.528;2022-08-21T08:52:34;30.42;;;21.17;;
35434;SDS011;21556;55.782;37.528;2022-08-21T08:55:04;29.25;;;21.35;;
35434;SDS011;21556;55.782;37.528;2022-08-21T08:57:35;24.35;;;19.58;;
35434;SDS011;21556;55.782;37.528;2022-08-21T09:00:07;25.85;;;20.10;;
35434;SDS011;21556;55.782;37.528;2022-08-21T09:02:40;24.60;;;19.75;;
35434;SDS011;21556;55.782;37.528;2022-08-21T09:05:08;24.48;;;17.77;;
35434;SDS011;21556;55.782;37.528;2022-08-21T09:07:57;23.77;;;16.35;;
35434;SDS011;21556;55.782;37.528;2022-08-21T09:10:48;27.33;;;17.42;;
35434;SDS011;21556;55.782;37.528;2022-08-21T09:16:03;22.00;;;15.15;;
35434;SDS011;21556;55.782;37.528;2022-08-21T09:24:02;22.80;;;14.32;;
35434;SDS011;21556;55.782;37.528;2022-08-21T09:29:10;21.77;;;15.18;;
35434;SDS011;21556;55.782;37.528;2022-08-21T09:31:37;26.58;;;15.40;;
35434;SDS011;21556;55.782;37.528;2022-08-21T09:34:09;26.45;;;16.23;;
35434;SDS011;21556;55.782;37.528;2022-08-21T09:36:47;22.17;;;14.95;;
35434;SDS011;21556;55.782;37.528;2022-08-21T09:42:10;23.30;;;14.77;;
35434;SDS011;21556;55.782;37.528;2022-08-21T09:44:46;24.05;;;15.35;;
35434;SDS011;21556;55.782;37.528;2022-08-21T09:47:12;20.00;;;14.07;;
35434;SDS011;21556;55.782;37.528;2022-08-21T09:49:39;21.80;;;13.23;;
35434;SDS011;21556;55.782;37.528;2022-08-21T09:52:20;23.88;;;14.13;;
35434;SDS011;21556;55.782;37.528;2022-08-21T09:54:54;20.15;;;14.25;;
35434;SDS011;21556;55.782;37.528;2022-08-21T09:57:26;22.85;;;14.50;;
35434;SDS011;21556;55.782;37.528;2022-08-21T10:02:43;19.35;;;14.10;;
35434;SDS011;21556;55.782;37.528;2022-08-21T10:05:23;28.13;;;14.77;;
35434;SDS011;21556;55.782;37.528;2022-08-21T10:07:52;20.23;;;14.70;;
35434;SDS011;21556;55.782;37.528;2022-08-21T10:18:21;17.15;;;13.70;;
35434;SDS011;21556;55.782;37.528;2022-08-21T10:26:09;23.50;;;14.15;;
35434;SDS011;21556;55.782;37.528;2022-08-21T10:37:01;23.92;;;15.10;;
35434;SDS011;21556;55.782;37.528;2022-08-21T10:45:32;15.55;;;11.45;;
35434;SDS011;21556;55.782;37.528;2022-08-21T10:48:08;15.93;;;10.60;;
35434;SDS011;21556;55.782;37.528;2022-08-21T10:50:42;19.38;;;10.48;;
35434;SDS011;21556;55.782;37.528;2022-08-21T10:53:34;14.75;;;10.95;;
35434;SDS011;21556;55.782;37.528;2022-08-21T10:56:15;17.23;;;10.50;;
35434;SDS011;21556;55.782;37.528;2022-08-21T11:01:53;16.80;;;10.33;;
35434;SDS011;21556;55.782;37.528;2022-08-21T11:04:36;17.23;;;9.45;;
35434;SDS011;21556;55.782;37.528;2022-08-21T11:07:15;17.23;;;10.00;;
35434;SDS011;21556;55.782;37.528;2022-08-21T11:09:46;16.40;;;9.63;;
35434;SDS011;21556;55.782;37.528;2022-08-21T11:15:00;14.60;;;8.18;;
35434;SDS011;21556;55.782;37.528;2022-08-21T11:17:52;14.20;;;6.45;;
35434;SDS011;21556;55.782;37.528;2022-08-21T11:20:29;16.58;;;7.28;;
35434;SDS011;21556;55.782;37.528;2022-08-21T11:23:19;16.65;;;6.30;;
35434;SDS011;21556;55.782;37.528;2022-08-21T11:25:55;12.00;;;5.65;;
35434;SDS011;21556;55.782;37.528;2022-08-21T11:28:28;12.63;;;6.40;;
35434;SDS011;21556;55.782;37.528;2022-08-21T11:36:56;13.07;;;6.53;;
35434;SDS011;21556;55.782;37.528;2022-08-21T11:42:16;23.52;;;10.13;;
35434;SDS011;21556;55.782;37.528;2022-08-21T11:44:55;19.58;;;8.25;;
35434;SDS011;21556;55.782;37.528;2022-08-21T11:47:33;15.60;;;9.15;;
35434;SDS011;21556;55.782;37.528;2022-08-21T11:50:37;18.80;;;11.32;;
35434;SDS011;21556;55.782;37.528;2022-08-21T11:53:17;23.50;;;12.30;;
35434;SDS011;21556;55.782;37.528;2022-08-21T11:58:20;20.52;;;13.30;;
35434;SDS011;21556;55.782;37.528;2022-08-21T12:00:52;20.25;;;12.50;;
35434;SDS011;21556;55.782;37.528;2022-08-21T12:05:54;18.60;;;12.93;;
35434;SDS011;21556;55.782;37.528;2022-08-21T12:08:43;22.15;;;12.60;;
35434;SDS011;21556;55.782;37.528;2022-08-21T12:13:53;23.50;;;12.27;;
35434;SDS011;21556;55.782;37.528;2022-08-21T12:21:29;21.35;;;11.27;;
35434;SDS011;21556;55.782;37.528;2022-08-21T12:26:49;18.65;;;9.52;;
35434;SDS011;21556;55.782;37.528;2022-08-21T12:34:21;21.42;;;10.02;;
35434;SDS011;21556;55.782;37.528;2022-08-21T12:36:55;15.88;;;9.07;;
35434;SDS011;21556;55.782;37.528;2022-08-21T12:39:26;23.42;;;9.40;;
35434;SDS011;21556;55.782;37.528;2022-08-21T12:45:02;13.15;;;8.68;;
35434;SDS011;21556;55.782;37.528;2022-08-21T12:47:32;13.65;;;9.20;;
35434;SDS011;21556;55.782;37.528;2022-08-21T12:50:06;16.02;;;9.00;;
35434;SDS011;21556;55.782;37.528;2022-08-21T12:52:40;15.00;;;8.25;;
35434;SDS011;21556;55.782;37.528;2022-08-21T12:55:30;15.98;;;8.10;;
35434;SDS011;21556;55.782;37.528;2022-08-21T12:57:57;15.68;;;7.85;;
35434;SDS011;21556;55.782;37.528;2022-08-21T13:00:24;12.00;;;7.70;;
35434;SDS011;21556;55.782;37.528;2022-08-21T13:02:53;20.88;;;8.18;;
35434;SDS011;21556;55.782;37.528;2022-08-21T13:05:27;13.35;;;8.10;;
35434;SDS011;21556;55.782;37.528;2022-08-21T13:08:03;9.98;;;7.57;;
35434;SDS011;21556;55.782;37.528;2022-08-21T13:10:31;17.23;;;9.38;;
35434;SDS011;21556;55.782;37.528;2022-08-21T13:13:00;15.07;;;10.02;;
35434;SDS011;21556;55.782;37.528;2022-08-21T13:15:32;22.58;;;9.15;;
35434;SDS011;21556;55.782;37.528;2022-08-21T13:18:02;16.88;;;8.05;;
35434;SDS011;21556;55.782;37.528;2022-08-21T13:20:31;12.43;;;6.97;;
35434;SDS011;21556;55.782;37.528;2022-08-21T13:23:06;12.20;;;5.82;;
35434;SDS011;21556;55.782;37.528;2022-08-21T13:25:43;16.38;;;6.78;;
35434;SDS011;21556;55.782;37.528;2022-08-21T13:28:10;14.10;;;6.68;;
35434;SDS011;21556;55.782;37.528;2022-08-21T13:30:44;15.27;;;7.05;;
35434;SDS011;21556;55.782;37.528;2022-08-21T13:33:14;9.68;;;6.20;;
35434;SDS011;21556;55.782;37.528;2022-08-21T13:35:47;11.82;;;6.35;;
35434;SDS011;21556;55.782;37.528;2022-08-21T13:38:34;20.92;;;7.65;;
35434;SDS011;21556;55.782;37.528;2022-08-21T13:41:05;16.50;;;7.63;;
35434;SDS011;21556;55.782;37.528;2022-08-21T13:43:48;16.33;;;7.72;;
35434;SDS011;21556;55.782;37.528;2022-08-21T13:46:15;11.40;;;7.80;;
35434;SDS011;21556;55.782;37.528;2022-08-21T13:48:45;21.65;;;7.40;;
35434;SDS011;21556;55.782;37.528;2022-08-21T13:51:11;16.35;;;7.82;;
35434;SDS011;21556;55.782;37.528;2022-08-21T13:56:06;14.25;;;7.75;;
35434;SDS011;21556;55.782;37.528;2022-08-21T13:58:42;15.23;;;7.05;;
35434;SDS011;21556;55.782;37.528;2022-08-21T14:01:49;12.85;;;7.95;;
35434;SDS011;21556;55.782;37.528;2022-08-21T14:07:36;17.52;;;7.85;;
35434;SDS011;21556;55.782;37.528;2022-08-21T14:10:06;15.57;;;7.60;;
35434;SDS011;21556;55.782;37.528;2022-08-21T14:12:41;15.63;;;7.45;;
35434;SDS011;21556;55.782;37.528;2022-08-21T14:15:09;22.25;;;8.20;;
35434;SDS011;21556;55.782;37.528;2022-08-21T14:17:39;14.60;;;7.85;;
35434;SDS011;21556;55.782;37.528;2022-08-21T14:20:07;14.57;;;7.18;;
35434;SDS011;21556;55.782;37.528;2022-08-21T14:22:46;13.60;;;6.65;;
35434;SDS011;21556;55.782;37.528;2022-08-21T14:27:57;9.95;;;4.40;;
35434;SDS011;21556;55.782;37.528;2022-08-21T14:30:33;8.98;;;3.45;;
35434;SDS011;21556;55.782;37.528;2022-08-21T14:33:01;7.03;;;3.47;;
35434;SDS011;21556;55.782;37.528;2022-08-21T14:35:29;12.25;;;3.80;;
35434;SDS011;21556;55.782;37.528;2022-08-21T14:37:55;9.45;;;4.10;;
35434;SDS011;21556;55.782;37.528;2022-08-21T14:40:22;7.35;;;2.92;;
35434;SDS011;21556;55.782;37.528;2022-08-21T14:42:49;10.15;;;3.40;;
35434;SDS011;21556;55.782;37.528;2022-08-21T14:45:17;6.97;;;3.78;;
35434;SDS011;21556;55.782;37.528;2022-08-21T14:50:20;8.90;;;2.85;;
35434;SDS011;21556;55.782;37.528;2022-08-21T14:52:46;8.38;;;3.30;;
35434;SDS011;21556;55.782;37.528;2022-08-21T14:55:13;5.53;;;3.10;;
35434;SDS011;21556;55.782;37.528;2022-08-21T15:00:10;14.38;;;2.60;;
35434;SDS011;21556;55.782;37.528;2022-08-21T15:02:39;9.55;;;2.67;;
35434;SDS011;21556;55.782;37.528;2022-08-21T15:05:05;9.23;;;2.67;;
35434;SDS011;21556;55.782;37.528;2022-08-21T15:07:31;10.85;;;4.80;;
35434;SDS011;21556;55.782;37.528;2022-08-21T15:09:57;12.20;;;2.70;;
35434;SDS011;21556;55.782;37.528;2022-08-21T15:12:23;15.70;;;3.50;;
35434;SDS011;21556;55.782;37.528;2022-08-21T15:14:50;6.40;;;2.78;;
35434;SDS011;21556;55.782;37.528;2022-08-21T15:17:17;9.13;;;2.63;;
35434;SDS011;21556;55.782;37.528;2022-08-21T15:19:43;7.40;;;2.30;;
35434;SDS011;21556;55.782;37.528;2022-08-21T15:22:08;6.45;;;1.95;;
35434;SDS011;21556;55.782;37.528;2022-08-21T15:24:34;4.55;;;2.25;;
35434;SDS011;21556;55.782;37.528;2022-08-21T15:27:01;8.38;;;2.20;;
35434;SDS011;21556;55.782;37.528;2022-08-21T15:29:29;8.63;;;2.63;;
35434;SDS011;21556;55.782;37.528;2022-08-21T15:31:57;5.45;;;2.20;;
35434;SDS011;21556;55.782;37.528;2022-08-21T15:34:44;6.43;;;1.85;;
35434;SDS011;21556;55.782;37.528;2022-08-21T15:37:10;8.57;;;1.88;;
35434;SDS011;21556;55.782;37.528;2022-08-21T15:39:36;11.07;;;2.63;;
35434;SDS011;21556;55.782;37.528;2022-08-21T15:42:02;11.82;;;3.55;;
35434;SDS011;21556;55.782;37.528;2022-08-21T15:44:32;7.35;;;2.10;;
35434;SDS011;21556;55.782;37.528;2022-08-21T15:47:19;4.13;;;1.80;;
35434;SDS011;21556;55.782;37.528;2022-08-21T15:49:50;8.65;;;1.98;;
35434;SDS011;21556;55.782;37.528;2022-08-21T15:52:20;11.93;;;1.83;;
35434;SDS011;21556;55.782;37.528;2022-08-21T15:54:46;9.15;;;1.95;;
35434;SDS011;21556;55.782;37.528;2022-08-21T15:57:13;6.78;;;1.92;;
35434;SDS011;21556;55.782;37.528;2022-08-21T15:59:41;6.82;;;1.80;;
35434;SDS011;21556;55.782;37.528;2022-08-21T16:02:22;5.93;;;1.95;;
35434;SDS011;21556;55.782;37.528;2022-08-21T16:04:50;9.60;;;2.70;;
35434;SDS011;21556;55.782;37.528;2022-08-21T16:07:17;6.40;;;1.88;;
35434;SDS011;21556;55.782;37.528;2022-08-21T16:09:52;5.63;;;1.83;;
35434;SDS011;21556;55.782;37.528;2022-08-21T16:12:29;8.18;;;1.65;;
35434;SDS011;21556;55.782;37.528;2022-08-21T16:15:01;4.45;;;1.40;;
35434;SDS011;21556;55.782;37.528;2022-08-21T16:17:31;4.47;;;1.58;;